sensor_id;sensor_type;location;lat;lon;timestamp;temperature;humidity
35962;DHT22;22044;48.298;10.008;2023-03-14T00:00:33;9.20;99.90
35962;DHT22;22044;48.298;10.008;2023-03-14T00:03:19;9.20;99.90
35962;DHT22;22044;48.298;10.008;2023-03-14T00:06:05;9.10;99.90
35962;DHT22;22044;48.298;10.008;2023-03-14T00:08:53;9.10;99.90
35962;DHT22;22044;48.298;10.008;2023-03-14T00:11:38;9.10;99.90
35962;DHT22;22044;48.298;10.008;2023-03-14T00:14:24;9.00;99.90
35962;DHT22;22044;48.298;10.008;2023-03-14T00:17:10;9.00;99.90
35962;DHT22;22044;48.298;10.008;2023-03-14T00:19:57;9.00;99.90
35962;DHT22;22044;48.298;10.008;2023-03-14T00:22:48;9.00;99.90
35962;DHT22;22044;48.298;10.008;2023-03-14T00:25:36;8.90;99.90
35962;DHT22;22044;48.298;10.008;2023-03-14T00:28:21;8.90;99.90
35962;DHT22;22044;48.298;10.008;2023-03-14T00:31:08;8.80;99.90
35962;DHT22;22044;48.298;10.008;2023-03-14T00:33:54;8.70;99.90
35962;DHT22;22044;48.298;10.008;2023-03-14T00:36:40;8.60;99.90
35962;DHT22;22044;48.298;10.008;2023-03-14T00:39:26;8.50;99.90
35962;DHT22;22044;48.298;10.008;2023-03-14T00:42:13;8.40;99.90
35962;DHT22;22044;48.298;10.008;2023-03-14T00:44:58;8.50;99.90
35962;DHT22;22044;48.298;10.008;2023-03-14T00:47:44;8.50;99.90
35962;DHT22;22044;48.298;10.008;2023-03-14T00:50:30;8.40;99.90
35962;DHT22;22044;48.298;10.008;2023-03-14T00:53:16;8.40;99.90
35962;DHT22;22044;48.298;10.008;2023-03-14T00:56:04;8.40;99.90
35962;DHT22;22044;48.298;10.008;2023-03-14T00:58:55;8.40;99.90
35962;DHT22;22044;48.298;10.008;2023-03-14T01:01:41;8.40;99.90
35962;DHT22;22044;48.298;10.008;2023-03-14T01:04:27;8.20;99.90
35962;DHT22;22044;48.298;10.008;2023-03-14T01:07:15;7.80;99.90
35962;DHT22;22044;48.298;10.008;2023-03-14T01:10:00;7.60;99.90
35962;DHT22;22044;48.298;10.008;2023-03-14T01:12:46;7.50;99.90
35962;DHT22;22044;48.298;10.008;2023-03-14T01:15:33;7.50;99.90
35962;DHT22;22044;48.298;10.008;2023-03-14T01:18:20;7.50;99.90
35962;DHT22;22044;48.298;10.008;2023-03-14T01:21:11;7.50;99.90
35962;DHT22;22044;48.298;10.008;2023-03-14T01:23:58;7.60;99.90
35962;DHT22;22044;48.298;10.008;2023-03-14T01:26:44;7.70;99.90
35962;DHT22;22044;48.298;10.008;2023-03-14T01:29:30;7.70;99.90
35962;DHT22;22044;48.298;10.008;2023-03-14T01:32:18;7.70;99.90
35962;DHT22;22044;48.298;10.008;2023-03-14T01:35:04;7.70;99.90
35962;DHT22;22044;48.298;10.008;2023-03-14T01:37:50;7.80;99.90
35962;DHT22;22044;48.298;10.008;2023-03-14T01:40:43;7.80;99.90
35962;DHT22;22044;48.298;10.008;2023-03-14T01:43:30;7.90;99.90
35962;DHT22;22044;48.298;10.008;2023-03-14T01:46:25;7.80;99.90
35962;DHT22;22044;48.298;10.008;2023-03-14T01:49:20;7.80;99.90
35962;DHT22;22044;48.298;10.008;2023-03-14T01:52:18;7.80;99.90
35962;DHT22;22044;48.298;10.008;2023-03-14T01:55:07;7.90;99.90
35962;DHT22;22044;48.298;10.008;2023-03-14T01:57:56;7.90;99.90
35962;DHT22;22044;48.298;10.008;2023-03-14T02:00:44;7.90;99.90
35962;DHT22;22044;48.298;10.008;2023-03-14T02:03:34;8.00;99.90
35962;DHT22;22044;48.298;10.008;2023-03-14T02:06:25;8.00;99.90
35962;DHT22;22044;48.298;10.008;2023-03-14T02:09:16;8.00;99.90
35962;DHT22;22044;48.298;10.008;2023-03-14T02:12:02;8.00;99.90
35962;DHT22;22044;48.298;10.008;2023-03-14T02:15:01;8.00;99.90
35962;DHT22;22044;48.298;10.008;2023-03-14T02:18:00;8.00;99.90
35962;DHT22;22044;48.298;10.008;2023-03-14T02:21:38;8.00;99.90
35962;DHT22;22044;48.298;10.008;2023-03-14T02:24:35;8.10;99.90
35962;DHT22;22044;48.298;10.008;2023-03-14T02:27:28;8.10;99.90
35962;DHT22;22044;48.298;10.008;2023-03-14T02:30:19;8.10;99.90
35962;DHT22;22044;48.298;10.008;2023-03-14T02:33:08;8.00;99.90
35962;DHT22;22044;48.298;10.008;2023-03-14T02:35:57;8.00;99.90
35962;DHT22;22044;48.298;10.008;2023-03-14T02:38:47;8.00;99.90
35962;DHT22;22044;48.298;10.008;2023-03-14T02:41:37;7.90;99.90
35962;DHT22;22044;48.298;10.008;2023-03-14T02:44:26;7.90;99.90
35962;DHT22;22044;48.298;10.008;2023-03-14T02:47:12;7.70;99.90
35962;DHT22;22044;48.298;10.008;2023-03-14T02:50:01;7.60;99.90
35962;DHT22;22044;48.298;10.008;2023-03-14T02:52:48;7.50;99.90
35962;DHT22;22044;48.298;10.008;2023-03-14T02:55:34;7.50;99.90
35962;DHT22;22044;48.298;10.008;2023-03-14T02:58:27;7.40;99.90
35962;DHT22;22044;48.298;10.008;2023-03-14T03:01:21;7.40;99.90
35962;DHT22;22044;48.298;10.008;2023-03-14T03:04:06;7.50;99.90
35962;DHT22;22044;48.298;10.008;2023-03-14T03:06:52;7.50;99.90
35962;DHT22;22044;48.298;10.008;2023-03-14T03:09:38;7.50;99.90
35962;DHT22;22044;48.298;10.008;2023-03-14T03:12:24;7.50;99.90
35962;DHT22;22044;48.298;10.008;2023-03-14T03:15:10;7.50;99.90
35962;DHT22;22044;48.298;10.008;2023-03-14T03:17:57;7.40;99.90
35962;DHT22;22044;48.298;10.008;2023-03-14T03:20:44;7.40;99.90
35962;DHT22;22044;48.298;10.008;2023-03-14T03:23:30;7.40;99.90
35962;DHT22;22044;48.298;10.008;2023-03-14T03:26:16;7.40;99.90
35962;DHT22;22044;48.298;10.008;2023-03-14T03:29:04;7.40;99.90
35962;DHT22;22044;48.298;10.008;2023-03-14T03:31:50;7.30;99.90
35962;DHT22;22044;48.298;10.008;2023-03-14T03:34:38;7.30;99.90
35962;DHT22;22044;48.298;10.008;2023-03-14T03:37:26;7.30;99.90
35962;DHT22;22044;48.298;10.008;2023-03-14T03:40:12;7.30;99.90
35962;DHT22;22044;48.298;10.008;2023-03-14T03:42:57;7.30;99.90
35962;DHT22;22044;48.298;10.008;2023-03-14T03:45:44;7.30;99.90
35962;DHT22;22044;48.298;10.008;2023-03-14T03:48:29;7.30;99.90
35962;DHT22;22044;48.298;10.008;2023-03-14T03:51:16;7.30;99.90
35962;DHT22;22044;48.298;10.008;2023-03-14T03:54:03;7.20;99.90
35962;DHT22;22044;48.298;10.008;2023-03-14T03:56:51;7.30;99.90
35962;DHT22;22044;48.298;10.008;2023-03-14T03:59:37;7.30;99.90
35962;DHT22;22044;48.298;10.008;2023-03-14T04:02:24;7.20;99.90
35962;DHT22;22044;48.298;10.008;2023-03-14T04:05:09;7.20;99.90
35962;DHT22;22044;48.298;10.008;2023-03-14T04:08:01;7.20;99.90
35962;DHT22;22044;48.298;10.008;2023-03-14T04:10:48;7.20;99.90
35962;DHT22;22044;48.298;10.008;2023-03-14T04:13:38;7.20;99.90
35962;DHT22;22044;48.298;10.008;2023-03-14T04:16:25;7.20;99.90
35962;DHT22;22044;48.298;10.008;2023-03-14T04:19:17;7.10;99.90
35962;DHT22;22044;48.298;10.008;2023-03-14T04:22:04;7.20;99.90
35962;DHT22;22044;48.298;10.008;2023-03-14T04:24:56;7.10;99.90
35962;DHT22;22044;48.298;10.008;2023-03-14T04:27:42;7.10;99.90
35962;DHT22;22044;48.298;10.008;2023-03-14T04:30:36;7.10;99.90
35962;DHT22;22044;48.298;10.008;2023-03-14T04:33:29;7.00;99.90
35962;DHT22;22044;48.298;10.008;2023-03-14T04:36:15;7.10;99.90
35962;DHT22;22044;48.298;10.008;2023-03-14T04:39:01;7.10;99.90
35962;DHT22;22044;48.298;10.008;2023-03-14T04:41:50;7.10;99.90
35962;DHT22;22044;48.298;10.008;2023-03-14T04:44:36;7.10;99.90
35962;DHT22;22044;48.298;10.008;2023-03-14T04:47:22;7.20;99.90
35962;DHT22;22044;48.298;10.008;2023-03-14T04:50:10;7.20;99.90
35962;DHT22;22044;48.298;10.008;2023-03-14T04:52:56;7.20;99.90
35962;DHT22;22044;48.298;10.008;2023-03-14T04:55:47;7.20;99.90
35962;DHT22;22044;48.298;10.008;2023-03-14T04:58:34;7.20;99.90
35962;DHT22;22044;48.298;10.008;2023-03-14T05:01:21;7.30;99.90
35962;DHT22;22044;48.298;10.008;2023-03-14T05:04:33;7.30;99.90
35962;DHT22;22044;48.298;10.008;2023-03-14T05:07:52;7.30;99.90
35962;DHT22;22044;48.298;10.008;2023-03-14T05:10:54;7.30;99.90
35962;DHT22;22044;48.298;10.008;2023-03-14T05:14:15;7.20;99.90
35962;DHT22;22044;48.298;10.008;2023-03-14T05:17:14;7.20;99.90
35962;DHT22;22044;48.298;10.008;2023-03-14T05:20:18;7.20;99.90
35962;DHT22;22044;48.298;10.008;2023-03-14T05:23:23;7.20;99.90
35962;DHT22;22044;48.298;10.008;2023-03-14T05:26:27;7.20;99.90
35962;DHT22;22044;48.298;10.008;2023-03-14T05:29:37;7.20;99.90
35962;DHT22;22044;48.298;10.008;2023-03-14T05:32:38;7.20;99.90
35962;DHT22;22044;48.298;10.008;2023-03-14T05:35:27;7.10;99.90
35962;DHT22;22044;48.298;10.008;2023-03-14T05:38:42;7.10;99.90
35962;DHT22;22044;48.298;10.008;2023-03-14T05:41:47;7.10;99.90
35962;DHT22;22044;48.298;10.008;2023-03-14T05:44:41;7.00;99.90
35962;DHT22;22044;48.298;10.008;2023-03-14T05:47:40;7.00;99.90
35962;DHT22;22044;48.298;10.008;2023-03-14T05:50:44;6.90;99.90
35962;DHT22;22044;48.298;10.008;2023-03-14T05:53:30;6.90;99.90
35962;DHT22;22044;48.298;10.008;2023-03-14T05:56:38;7.00;99.90
35962;DHT22;22044;48.298;10.008;2023-03-14T05:59:52;6.90;99.90
35962;DHT22;22044;48.298;10.008;2023-03-14T06:02:56;6.90;99.90
35962;DHT22;22044;48.298;10.008;2023-03-14T06:05:50;6.90;99.90
35962;DHT22;22044;48.298;10.008;2023-03-14T06:08:37;6.90;99.90
35962;DHT22;22044;48.298;10.008;2023-03-14T06:11:24;6.90;99.90
35962;DHT22;22044;48.298;10.008;2023-03-14T06:14:10;6.90;99.90
35962;DHT22;22044;48.298;10.008;2023-03-14T06:17:01;7.00;99.90
35962;DHT22;22044;48.298;10.008;2023-03-14T06:19:53;6.90;99.90
35962;DHT22;22044;48.298;10.008;2023-03-14T06:22:39;6.90;99.90
35962;DHT22;22044;48.298;10.008;2023-03-14T06:25:27;6.90;99.90
35962;DHT22;22044;48.298;10.008;2023-03-14T06:28:13;6.90;99.90
35962;DHT22;22044;48.298;10.008;2023-03-14T06:30:59;6.90;99.90
35962;DHT22;22044;48.298;10.008;2023-03-14T06:33:50;7.00;99.90
35962;DHT22;22044;48.298;10.008;2023-03-14T06:36:36;7.00;99.90
35962;DHT22;22044;48.298;10.008;2023-03-14T06:39:22;6.90;99.90
35962;DHT22;22044;48.298;10.008;2023-03-14T06:42:17;7.00;99.90
35962;DHT22;22044;48.298;10.008;2023-03-14T06:45:04;7.00;99.90
35962;DHT22;22044;48.298;10.008;2023-03-14T06:47:50;7.00;99.90
35962;DHT22;22044;48.298;10.008;2023-03-14T06:50:41;7.10;99.90
35962;DHT22;22044;48.298;10.008;2023-03-14T06:53:27;7.10;99.90
35962;DHT22;22044;48.298;10.008;2023-03-14T06:56:15;7.10;99.90
35962;DHT22;22044;48.298;10.008;2023-03-14T06:59:01;7.10;99.90
35962;DHT22;22044;48.298;10.008;2023-03-14T07:01:50;7.20;99.90
35962;DHT22;22044;48.298;10.008;2023-03-14T07:04:35;7.10;99.90
35962;DHT22;22044;48.298;10.008;2023-03-14T07:07:22;7.20;99.90
35962;DHT22;22044;48.298;10.008;2023-03-14T07:10:09;7.20;99.90
35962;DHT22;22044;48.298;10.008;2023-03-14T07:12:55;7.30;99.90
35962;DHT22;22044;48.298;10.008;2023-03-14T07:15:44;7.30;99.90
35962;DHT22;22044;48.298;10.008;2023-03-14T07:18:32;7.30;99.90
35962;DHT22;22044;48.298;10.008;2023-03-14T07:21:21;7.30;99.90
35962;DHT22;22044;48.298;10.008;2023-03-14T07:24:08;7.40;99.90
35962;DHT22;22044;48.298;10.008;2023-03-14T07:26:55;7.40;99.90
35962;DHT22;22044;48.298;10.008;2023-03-14T07:29:41;7.40;99.90
35962;DHT22;22044;48.298;10.008;2023-03-14T07:32:27;7.40;99.90
35962;DHT22;22044;48.298;10.008;2023-03-14T07:35:12;7.50;99.90
35962;DHT22;22044;48.298;10.008;2023-03-14T07:38:00;7.60;99.90
35962;DHT22;22044;48.298;10.008;2023-03-14T07:40:59;7.60;99.90
35962;DHT22;22044;48.298;10.008;2023-03-14T07:43:46;7.70;99.90
35962;DHT22;22044;48.298;10.008;2023-03-14T07:46:32;7.80;99.90
35962;DHT22;22044;48.298;10.008;2023-03-14T07:49:17;7.90;99.90
35962;DHT22;22044;48.298;10.008;2023-03-14T07:52:03;7.90;99.90
35962;DHT22;22044;48.298;10.008;2023-03-14T07:54:48;8.00;99.90
35962;DHT22;22044;48.298;10.008;2023-03-14T07:57:36;8.10;99.90
35962;DHT22;22044;48.298;10.008;2023-03-14T08:00:21;8.20;99.90
35962;DHT22;22044;48.298;10.008;2023-03-14T08:03:07;8.30;99.90
35962;DHT22;22044;48.298;10.008;2023-03-14T08:05:52;8.40;99.90
35962;DHT22;22044;48.298;10.008;2023-03-14T08:08:40;8.40;99.90
35962;DHT22;22044;48.298;10.008;2023-03-14T08:11:26;8.60;99.90
35962;DHT22;22044;48.298;10.008;2023-03-14T08:14:13;8.70;99.90
35962;DHT22;22044;48.298;10.008;2023-03-14T08:16:58;8.80;99.90
35962;DHT22;22044;48.298;10.008;2023-03-14T08:19:44;8.80;99.90
35962;DHT22;22044;48.298;10.008;2023-03-14T08:22:30;9.00;99.90
35962;DHT22;22044;48.298;10.008;2023-03-14T08:25:16;9.00;99.90
35962;DHT22;22044;48.298;10.008;2023-03-14T08:28:02;9.00;99.90
35962;DHT22;22044;48.298;10.008;2023-03-14T08:30:49;9.10;99.90
35962;DHT22;22044;48.298;10.008;2023-03-14T08:33:35;9.20;99.90
35962;DHT22;22044;48.298;10.008;2023-03-14T08:36:20;9.20;99.90
35962;DHT22;22044;48.298;10.008;2023-03-14T08:39:06;9.20;99.90
35962;DHT22;22044;48.298;10.008;2023-03-14T08:41:52;9.20;99.90
35962;DHT22;22044;48.298;10.008;2023-03-14T08:44:37;9.10;99.90
35962;DHT22;22044;48.298;10.008;2023-03-14T08:47:25;9.10;99.90
35962;DHT22;22044;48.298;10.008;2023-03-14T08:50:11;9.20;99.90
35962;DHT22;22044;48.298;10.008;2023-03-14T08:52:56;9.40;99.90
35962;DHT22;22044;48.298;10.008;2023-03-14T08:55:44;9.40;99.90
35962;DHT22;22044;48.298;10.008;2023-03-14T08:58:29;9.50;99.90
35962;DHT22;22044;48.298;10.008;2023-03-14T09:01:15;9.70;99.90
35962;DHT22;22044;48.298;10.008;2023-03-14T09:04:04;9.70;99.90
35962;DHT22;22044;48.298;10.008;2023-03-14T09:06:51;9.90;99.90
35962;DHT22;22044;48.298;10.008;2023-03-14T09:09:36;10.00;99.90
35962;DHT22;22044;48.298;10.008;2023-03-14T09:12:22;10.00;99.90
35962;DHT22;22044;48.298;10.008;2023-03-14T09:15:08;10.10;99.90
35962;DHT22;22044;48.298;10.008;2023-03-14T09:17:54;10.10;99.90
35962;DHT22;22044;48.298;10.008;2023-03-14T09:20:41;10.10;99.90
35962;DHT22;22044;48.298;10.008;2023-03-14T09:23:28;10.30;99.90
35962;DHT22;22044;48.298;10.008;2023-03-14T09:26:14;10.30;99.90
35962;DHT22;22044;48.298;10.008;2023-03-14T09:28:59;10.40;99.90
35962;DHT22;22044;48.298;10.008;2023-03-14T09:31:45;10.70;99.90
35962;DHT22;22044;48.298;10.008;2023-03-14T09:34:31;10.80;99.90
35962;DHT22;22044;48.298;10.008;2023-03-14T09:37:18;10.70;99.90
35962;DHT22;22044;48.298;10.008;2023-03-14T09:40:05;10.80;99.90
35962;DHT22;22044;48.298;10.008;2023-03-14T09:42:56;10.80;99.90
35962;DHT22;22044;48.298;10.008;2023-03-14T09:45:44;10.80;99.90
35962;DHT22;22044;48.298;10.008;2023-03-14T09:48:33;10.90;99.90
35962;DHT22;22044;48.298;10.008;2023-03-14T09:51:20;10.90;99.90
35962;DHT22;22044;48.298;10.008;2023-03-14T09:54:18;11.20;99.90
35962;DHT22;22044;48.298;10.008;2023-03-14T09:57:13;11.40;99.90
35962;DHT22;22044;48.298;10.008;2023-03-14T10:00:03;11.50;99.90
35962;DHT22;22044;48.298;10.008;2023-03-14T10:03:04;11.60;99.90
35962;DHT22;22044;48.298;10.008;2023-03-14T10:05:59;11.50;99.90
35962;DHT22;22044;48.298;10.008;2023-03-14T10:08:45;11.60;99.90
35962;DHT22;22044;48.298;10.008;2023-03-14T10:11:32;11.90;99.90
35962;DHT22;22044;48.298;10.008;2023-03-14T10:14:30;12.00;99.90
35962;DHT22;22044;48.298;10.008;2023-03-14T10:17:16;12.30;99.90
35962;DHT22;22044;48.298;10.008;2023-03-14T10:20:02;12.40;99.90
35962;DHT22;22044;48.298;10.008;2023-03-14T10:22:51;12.10;99.90
35962;DHT22;22044;48.298;10.008;2023-03-14T10:25:38;11.90;99.90
35962;DHT22;22044;48.298;10.008;2023-03-14T10:28:26;11.70;99.90
35962;DHT22;22044;48.298;10.008;2023-03-14T10:31:13;11.70;99.90
35962;DHT22;22044;48.298;10.008;2023-03-14T10:34:00;11.70;99.90
35962;DHT22;22044;48.298;10.008;2023-03-14T10:36:46;11.70;99.90
35962;DHT22;22044;48.298;10.008;2023-03-14T10:39:41;11.90;99.90
35962;DHT22;22044;48.298;10.008;2023-03-14T10:42:32;11.90;99.90
35962;DHT22;22044;48.298;10.008;2023-03-14T10:45:38;11.90;99.90
35962;DHT22;22044;48.298;10.008;2023-03-14T10:48:30;12.00;99.90
35962;DHT22;22044;48.298;10.008;2023-03-14T10:51:22;11.90;99.90
35962;DHT22;22044;48.298;10.008;2023-03-14T10:54:14;11.70;99.90
35962;DHT22;22044;48.298;10.008;2023-03-14T10:57:01;11.70;99.90
35962;DHT22;22044;48.298;10.008;2023-03-14T10:59:51;11.70;99.90
35962;DHT22;22044;48.298;10.008;2023-03-14T11:03:00;12.00;99.90
35962;DHT22;22044;48.298;10.008;2023-03-14T11:05:52;12.30;99.90
35962;DHT22;22044;48.298;10.008;2023-03-14T11:08:46;12.30;99.90
35962;DHT22;22044;48.298;10.008;2023-03-14T11:11:35;12.00;99.90
35962;DHT22;22044;48.298;10.008;2023-03-14T11:14:28;12.00;99.90
35962;DHT22;22044;48.298;10.008;2023-03-14T11:17:22;12.20;99.90
35962;DHT22;22044;48.298;10.008;2023-03-14T11:20:23;12.30;99.90
35962;DHT22;22044;48.298;10.008;2023-03-14T11:23:14;12.20;99.90
35962;DHT22;22044;48.298;10.008;2023-03-14T11:26:08;12.10;99.90
35962;DHT22;22044;48.298;10.008;2023-03-14T11:28:58;12.00;99.90
35962;DHT22;22044;48.298;10.008;2023-03-14T11:31:46;11.90;99.90
35962;DHT22;22044;48.298;10.008;2023-03-14T11:34:36;11.80;99.90
35962;DHT22;22044;48.298;10.008;2023-03-14T11:37:27;11.80;99.90
35962;DHT22;22044;48.298;10.008;2023-03-14T11:40:17;11.60;99.90
35962;DHT22;22044;48.298;10.008;2023-03-14T11:43:10;11.60;99.90
35962;DHT22;22044;48.298;10.008;2023-03-14T11:46:03;11.50;99.90
35962;DHT22;22044;48.298;10.008;2023-03-14T11:48:58;11.50;99.90
35962;DHT22;22044;48.298;10.008;2023-03-14T11:51:47;11.40;99.90
35962;DHT22;22044;48.298;10.008;2023-03-14T11:54:40;11.10;99.90
35962;DHT22;22044;48.298;10.008;2023-03-14T11:57:29;11.10;99.90
35962;DHT22;22044;48.298;10.008;2023-03-14T12:00:17;11.00;99.90
35962;DHT22;22044;48.298;10.008;2023-03-14T12:03:11;10.90;99.90
35962;DHT22;22044;48.298;10.008;2023-03-14T12:06:08;10.90;99.90
35962;DHT22;22044;48.298;10.008;2023-03-14T12:08:59;10.80;99.90
35962;DHT22;22044;48.298;10.008;2023-03-14T12:11:48;10.40;99.90
35962;DHT22;22044;48.298;10.008;2023-03-14T12:14:37;10.50;99.90
35962;DHT22;22044;48.298;10.008;2023-03-14T12:17:35;10.40;99.90
35962;DHT22;22044;48.298;10.008;2023-03-14T12:20:23;10.40;99.90
35962;DHT22;22044;48.298;10.008;2023-03-14T12:23:11;10.30;99.90
35962;DHT22;22044;48.298;10.008;2023-03-14T12:26:12;10.20;99.90
35962;DHT22;22044;48.298;10.008;2023-03-14T12:29:15;10.20;99.90
35962;DHT22;22044;48.298;10.008;2023-03-14T12:32:12;10.00;99.90
35962;DHT22;22044;48.298;10.008;2023-03-14T12:35:32;9.90;99.90
35962;DHT22;22044;48.298;10.008;2023-03-14T12:38:24;9.80;99.90
35962;DHT22;22044;48.298;10.008;2023-03-14T12:41:17;9.70;99.90
35962;DHT22;22044;48.298;10.008;2023-03-14T12:44:44;9.50;99.90
35962;DHT22;22044;48.298;10.008;2023-03-14T12:50:47;9.40;99.90
35962;DHT22;22044;48.298;10.008;2023-03-14T12:54:25;9.30;99.90
35962;DHT22;22044;48.298;10.008;2023-03-14T12:57:21;9.10;99.90
35962;DHT22;22044;48.298;10.008;2023-03-14T13:00:19;9.10;99.90
35962;DHT22;22044;48.298;10.008;2023-03-14T13:03:17;9.10;99.90
35962;DHT22;22044;48.298;10.008;2023-03-14T13:06:03;9.10;99.90
35962;DHT22;22044;48.298;10.008;2023-03-14T13:08:49;9.10;99.90
35962;DHT22;22044;48.298;10.008;2023-03-14T13:11:41;9.10;99.90
35962;DHT22;22044;48.298;10.008;2023-03-14T13:14:28;9.10;99.90
35962;DHT22;22044;48.298;10.008;2023-03-14T13:17:23;9.20;99.90
35962;DHT22;22044;48.298;10.008;2023-03-14T13:20:14;9.00;99.90
35962;DHT22;22044;48.298;10.008;2023-03-14T13:23:00;8.90;99.90
35962;DHT22;22044;48.298;10.008;2023-03-14T13:25:48;8.80;99.90
35962;DHT22;22044;48.298;10.008;2023-03-14T13:28:34;8.80;99.90
35962;DHT22;22044;48.298;10.008;2023-03-14T13:31:22;8.80;99.90
35962;DHT22;22044;48.298;10.008;2023-03-14T13:34:11;8.70;99.90
35962;DHT22;22044;48.298;10.008;2023-03-14T13:36:57;8.50;99.90
35962;DHT22;22044;48.298;10.008;2023-03-14T13:39:42;8.30;99.90
35962;DHT22;22044;48.298;10.008;2023-03-14T13:42:29;7.60;99.90
35962;DHT22;22044;48.298;10.008;2023-03-14T13:45:16;7.10;99.90
35962;DHT22;22044;48.298;10.008;2023-03-14T13:48:01;7.00;99.90
35962;DHT22;22044;48.298;10.008;2023-03-14T13:50:55;6.90;99.90
35962;DHT22;22044;48.298;10.008;2023-03-14T13:53:45;7.00;99.90
35962;DHT22;22044;48.298;10.008;2023-03-14T13:56:32;7.10;99.90
35962;DHT22;22044;48.298;10.008;2023-03-14T13:59:24;7.10;99.90
35962;DHT22;22044;48.298;10.008;2023-03-14T14:02:13;7.20;99.90
35962;DHT22;22044;48.298;10.008;2023-03-14T14:04:59;7.30;99.90
35962;DHT22;22044;48.298;10.008;2023-03-14T14:07:49;7.40;99.90
35962;DHT22;22044;48.298;10.008;2023-03-14T14:10:37;7.50;99.90
35962;DHT22;22044;48.298;10.008;2023-03-14T14:13:24;7.60;99.90
35962;DHT22;22044;48.298;10.008;2023-03-14T14:16:10;7.70;99.90
35962;DHT22;22044;48.298;10.008;2023-03-14T14:18:56;7.70;99.90
35962;DHT22;22044;48.298;10.008;2023-03-14T14:21:42;7.60;99.90
35962;DHT22;22044;48.298;10.008;2023-03-14T14:24:31;7.60;99.90
35962;DHT22;22044;48.298;10.008;2023-03-14T14:27:19;7.60;99.90
35962;DHT22;22044;48.298;10.008;2023-03-14T14:30:29;7.70;99.90
35962;DHT22;22044;48.298;10.008;2023-03-14T14:33:20;7.70;99.90
35962;DHT22;22044;48.298;10.008;2023-03-14T14:36:15;7.70;99.90
35962;DHT22;22044;48.298;10.008;2023-03-14T14:39:05;7.70;99.90
35962;DHT22;22044;48.298;10.008;2023-03-14T14:41:55;7.60;99.90
35962;DHT22;22044;48.298;10.008;2023-03-14T14:44:42;7.60;99.90
35962;DHT22;22044;48.298;10.008;2023-03-14T14:47:29;7.60;99.90
35962;DHT22;22044;48.298;10.008;2023-03-14T14:50:28;7.60;99.90
35962;DHT22;22044;48.298;10.008;2023-03-14T14:53:21;7.60;99.90
35962;DHT22;22044;48.298;10.008;2023-03-14T14:56:16;7.60;99.90
35962;DHT22;22044;48.298;10.008;2023-03-14T14:59:06;7.60;99.90
35962;DHT22;22044;48.298;10.008;2023-03-14T15:01:55;7.60;99.90
35962;DHT22;22044;48.298;10.008;2023-03-14T15:04:41;7.40;99.90
35962;DHT22;22044;48.298;10.008;2023-03-14T15:07:27;7.50;99.90
35962;DHT22;22044;48.298;10.008;2023-03-14T15:10:14;7.40;99.90
35962;DHT22;22044;48.298;10.008;2023-03-14T15:13:00;7.40;99.90
35962;DHT22;22044;48.298;10.008;2023-03-14T15:15:47;7.50;99.90
35962;DHT22;22044;48.298;10.008;2023-03-14T15:18:33;7.50;99.90
35962;DHT22;22044;48.298;10.008;2023-03-14T15:21:18;7.50;99.90
35962;DHT22;22044;48.298;10.008;2023-03-14T15:24:04;7.50;99.90
35962;DHT22;22044;48.298;10.008;2023-03-14T15:26:50;7.50;99.90
35962;DHT22;22044;48.298;10.008;2023-03-14T15:29:35;7.50;99.90
35962;DHT22;22044;48.298;10.008;2023-03-14T15:32:23;7.50;99.90
35962;DHT22;22044;48.298;10.008;2023-03-14T15:35:09;7.40;99.90
35962;DHT22;22044;48.298;10.008;2023-03-14T15:37:54;7.40;99.90
35962;DHT22;22044;48.298;10.008;2023-03-14T15:40:40;7.40;99.90
35962;DHT22;22044;48.298;10.008;2023-03-14T15:43:26;7.30;99.90
35962;DHT22;22044;48.298;10.008;2023-03-14T15:46:12;7.20;99.90
35962;DHT22;22044;48.298;10.008;2023-03-14T15:48:59;7.20;99.90
35962;DHT22;22044;48.298;10.008;2023-03-14T15:51:45;7.20;99.90
35962;DHT22;22044;48.298;10.008;2023-03-14T15:54:31;7.10;99.90
35962;DHT22;22044;48.298;10.008;2023-03-14T15:57:16;7.10;99.90
35962;DHT22;22044;48.298;10.008;2023-03-14T16:00:03;7.10;99.90
35962;DHT22;22044;48.298;10.008;2023-03-14T16:02:53;7.00;99.90
35962;DHT22;22044;48.298;10.008;2023-03-14T16:05:40;7.10;99.90
35962;DHT22;22044;48.298;10.008;2023-03-14T16:08:26;6.90;99.90
35962;DHT22;22044;48.298;10.008;2023-03-14T16:11:14;6.90;99.90
35962;DHT22;22044;48.298;10.008;2023-03-14T16:14:01;6.80;99.90
35962;DHT22;22044;48.298;10.008;2023-03-14T16:16:47;6.90;99.90
35962;DHT22;22044;48.298;10.008;2023-03-14T16:19:32;6.90;99.90
35962;DHT22;22044;48.298;10.008;2023-03-14T16:22:19;6.90;99.90
35962;DHT22;22044;48.298;10.008;2023-03-14T16:25:06;7.00;99.90
35962;DHT22;22044;48.298;10.008;2023-03-14T16:27:52;7.10;99.90
35962;DHT22;22044;48.298;10.008;2023-03-14T16:30:38;6.90;99.90
35962;DHT22;22044;48.298;10.008;2023-03-14T16:33:23;7.00;99.90
35962;DHT22;22044;48.298;10.008;2023-03-14T16:36:10;7.00;99.90
35962;DHT22;22044;48.298;10.008;2023-03-14T16:39:01;7.00;99.90
35962;DHT22;22044;48.298;10.008;2023-03-14T16:41:47;7.00;99.90
35962;DHT22;22044;48.298;10.008;2023-03-14T16:44:33;6.90;99.90
35962;DHT22;22044;48.298;10.008;2023-03-14T16:47:19;6.70;99.90
35962;DHT22;22044;48.298;10.008;2023-03-14T16:50:05;6.70;99.90
35962;DHT22;22044;48.298;10.008;2023-03-14T16:52:51;6.60;99.90
35962;DHT22;22044;48.298;10.008;2023-03-14T16:55:41;6.60;99.90
35962;DHT22;22044;48.298;10.008;2023-03-14T16:58:27;6.60;99.90
35962;DHT22;22044;48.298;10.008;2023-03-14T17:01:15;6.60;99.90
35962;DHT22;22044;48.298;10.008;2023-03-14T17:04:01;6.60;99.90
35962;DHT22;22044;48.298;10.008;2023-03-14T17:06:47;6.60;99.90
35962;DHT22;22044;48.298;10.008;2023-03-14T17:09:32;6.60;99.90
35962;DHT22;22044;48.298;10.008;2023-03-14T17:12:20;6.60;99.90
35962;DHT22;22044;48.298;10.008;2023-03-14T17:15:06;6.60;99.90
35962;DHT22;22044;48.298;10.008;2023-03-14T17:17:52;6.60;99.90
35962;DHT22;22044;48.298;10.008;2023-03-14T17:20:37;6.50;99.90
35962;DHT22;22044;48.298;10.008;2023-03-14T17:23:25;6.50;99.90
35962;DHT22;22044;48.298;10.008;2023-03-14T17:26:11;6.50;99.90
35962;DHT22;22044;48.298;10.008;2023-03-14T17:28:59;6.50;99.90
35962;DHT22;22044;48.298;10.008;2023-03-14T17:31:45;6.60;99.90
35962;DHT22;22044;48.298;10.008;2023-03-14T17:34:30;6.60;99.90
35962;DHT22;22044;48.298;10.008;2023-03-14T17:37:16;6.60;99.90
35962;DHT22;22044;48.298;10.008;2023-03-14T17:40:02;6.60;99.90
35962;DHT22;22044;48.298;10.008;2023-03-14T17:42:47;6.50;99.90
35962;DHT22;22044;48.298;10.008;2023-03-14T17:45:35;6.50;99.90
35962;DHT22;22044;48.298;10.008;2023-03-14T17:48:20;6.50;99.90
35962;DHT22;22044;48.298;10.008;2023-03-14T17:51:06;6.50;99.90